Latest Weather Observations for Ayr

IDQ60801

Issued at 4:02 pm EST Tuesday 21 April 2015 (issued every 30 minutes, with the page automatically refreshed every 10 minutes)

About weather observations | Map of weather stations | Latest weather observations for QLD | Other Formats
Station Details ID: 033002 Name: AYR DPI RESEARCH STN Lat: -19.62 Lon: 147.38 Height: 17.0 m
Data from the previous 72 hours. | See also: Recent months at Ayr
Date/Time
EST
Temp
°C
App
Temp
°C
Dew
Point
Rel
Hum
%
Delta-T
°C
Wind Press
QNH
hPa
Press
MSL
hPa
Rain
since 9 am
mm
Dir
 
Spd
km/h
Gust
km/h
Spd
kts
Gust
kts
21/04:00pm 29.4 27.8 11.5 33 10.3 SE 11 19 6 10 - - 0.0
21/03:30pm 28.8 26.4 10.0 31 10.6 SE 13 17 7 9 - - 0.0
21/03:00pm 28.8 26.6 10.9 33 10.2 SSE 13 20 7 11 - - 0.0
21/02:30pm 28.8 26.8 11.4 34 10.0 SSE 13 24 7 13 - - 0.0
21/02:00pm 28.4 25.9 11.0 34 9.9 SE 15 22 8 12 - - 0.0
21/01:30pm 28.3 25.9 11.4 35 9.7 SSE 15 20 8 11 - - 0.0
21/01:00pm 27.2 24.5 11.7 38 8.9 SSE 17 30 9 16 - - 0.0
21/12:30pm 26.5 23.8 11.8 40 8.4 SSE 17 28 9 15 - - 0.0
21/12:00pm 26.6 23.7 12.3 41 8.3 S 19 26 10 14 - - 0.0
21/11:30am 26.3 24.0 13.1 44 7.7 S 17 24 9 13 - - 0.0
21/11:00am 24.8 22.1 13.0 47 6.8 S 19 24 10 13 - - 0.0
21/10:30am 24.4 21.6 13.3 50 6.5 S 20 28 11 15 - - 0.0
21/10:00am 23.6 20.6 13.8 54 5.7 S 22 33 12 18 - - 0.0
21/09:30am 23.0 20.9 15.1 61 4.7 S 20 28 11 15 - - 0.0
21/09:00am 22.1 20.0 15.2 65 4.1 S 20 30 11 16 - - 6.4
21/08:30am 22.2 20.5 16.2 69 3.6 S 20 30 11 16 - - 6.4
21/08:00am 21.4 19.5 15.7 70 3.4 S 20 32 11 17 - - 6.4
21/07:30am 21.7 19.8 15.8 69 3.5 S 20 32 11 17 - - 6.4
21/07:00am 21.3 20.0 15.8 71 3.3 SSW 17 24 9 13 - - 6.4
21/06:30am 20.9 20.1 16.1 74 2.9 SSW 15 22 8 12 - - 6.4
21/06:00am 21.0 20.2 16.0 73 3.0 S 15 20 8 11 - - 6.4
21/05:30am 21.3 20.6 16.3 73 3.0 SSW 15 20 8 11 - - 6.4
21/05:00am 21.4 21.0 16.1 72 3.2 SSW 13 20 7 11 - - 6.4
21/04:30am 21.5 20.6 15.8 70 3.4 S 15 19 8 10 - - 6.4
21/04:00am 21.9 20.6 15.7 68 3.7 SSW 17 24 9 13 - - 6.4
21/03:30am 21.5 21.1 16.2 72 3.2 SSW 13 17 7 9 - - 6.4
21/03:00am 21.6 21.4 16.6 73 3.0 SSW 13 17 7 9 - - 6.4
21/02:30am 21.4 21.9 16.6 74 2.9 SSW 9 13 5 7 - - 6.4
21/02:00am 21.3 22.2 17.5 79 2.3 WSW 9 11 5 6 - - 6.4
21/01:30am 21.4 23.9 18.2 82 2.0 W 2 7 1 4 - - 6.4
21/01:00am 21.3 22.8 18.1 82 2.0 SW 7 9 4 5 - - 6.4
21/12:30am 21.0 22.0 17.8 82 2.0 SSW 9 13 5 7 - - 6.4
21/12:00am 21.0 22.1 17.2 79 2.3 SSE 7 11 4 6 - - 6.4
 
Date/Time
EST
Temp
°C
App
Temp
°C
Dew
Point
Rel
Hum
%
Delta-T
°C
Wind Press
QNH
hPa
Press
MSL
hPa
Rain
since 9 am
mm
Dir
 
Spd
km/h
Gust
km/h
Spd
kts
Gust
kts
20/11:30pm 21.3 21.6 16.9 76 2.7 SE 11 15 6 8 - - 6.2
20/11:00pm 22.1 24.7 18.3 79 2.4 ESE 2 6 1 3 - - 6.0
20/10:30pm 22.3 24.1 17.4 74 3.0 ESE 4 7 2 4 - - 6.0
20/10:00pm 22.3 22.7 17.2 73 3.1 S 11 13 6 7 - - 6.0
20/09:30pm 22.4 22.7 17.1 72 3.3 S 11 13 6 7 - - 6.0
20/09:00pm 22.6 22.6 17.1 71 3.4 S 13 17 7 9 - - 6.0
20/08:30pm 22.9 22.7 17.6 72 3.3 S 15 20 8 11 - - 6.0
20/08:00pm 23.1 23.9 19.1 78 2.5 S 13 17 7 9 - - 6.0
20/07:30pm 23.3 24.4 20.4 84 1.9 S 15 19 8 10 - - 6.0
20/07:00pm 23.3 25.5 20.4 84 1.9 S 9 13 5 7 - - 6.0
20/06:30pm 23.2 24.5 20.2 83 1.9 ESE 13 20 7 11 - - 6.0
20/06:00pm 23.4 23.0 19.3 78 2.6 SE 20 30 11 16 - - 4.6
20/05:30pm 26.8 28.0 20.6 69 4.1 E 15 26 8 14 - - 4.6
20/05:00pm 27.3 28.2 20.9 68 4.2 ENE 17 24 9 13 - - 4.6
20/04:30pm 27.3 28.0 19.6 62 5.0 ENE 15 20 8 11 - - 4.6
20/04:00pm 28.0 29.5 19.8 61 5.3 ENE 11 17 6 9 - - 4.6
20/03:30pm 26.9 30.5 22.1 75 3.2 NE 6 9 3 5 - - 4.6
20/03:00pm 25.5 27.4 20.5 74 3.3 ESE 11 17 6 9 - - 4.4
20/02:30pm 24.0 23.4 18.9 73 3.2 SSE 20 35 11 19 - - 3.6
20/02:23pm 25.3 24.5 18.5 66 4.3 SSE 20 35 11 19 - - 1.4
20/02:00pm 30.4 30.5 19.1 50 7.4 ENE 17 24 9 13 - - 0.0
20/01:30pm 30.9 31.0 18.3 47 8.1 ENE 15 26 8 14 - - 0.0
20/01:00pm 31.4 30.9 16.9 41 9.2 E 15 24 8 13 - - 0.0
20/12:30pm 31.5 31.8 18.8 46 8.3 E 15 24 8 13 - - 0.0
20/12:00pm 30.4 28.9 17.8 46 8.0 ENE 22 26 12 14 - - 0.0
20/11:30am 30.6 30.8 17.7 46 8.2 E 13 19 7 10 - - 0.0
20/11:00am 30.2 30.3 18.3 49 7.6 SSE 15 28 8 15 - - 0.0
20/10:30am 29.4 30.2 19.1 54 6.7 SSE 13 20 7 11 - - 0.0
20/10:00am 29.1 30.0 18.5 52 6.8 SE 11 20 6 11 - - 0.0
20/09:30am 27.7 28.3 18.7 58 5.8 SSE 13 22 7 12 - - 0.0
20/09:00am 27.2 27.1 18.8 60 5.4 SSE 17 24 9 13 - - 0.0
20/08:30am 26.0 26.5 19.2 66 4.4 S 15 19 8 10 - - 0.0
20/08:00am 25.0 26.5 19.8 73 3.4 S 11 17 6 9 - - 0.0
20/07:30am 23.3 25.2 19.7 80 2.3 S 9 15 5 8 - - 0.0
20/07:00am 22.0 23.3 19.2 84 1.8 S 11 13 6 7 - - 0.0
20/06:30am 20.9 22.3 18.7 87 1.4 SSW 9 11 5 6 - - 0.0
20/06:00am 20.9 23.2 18.5 86 1.5 S 4 6 2 3 - - 0.0
20/05:30am 21.1 22.9 18.7 86 1.5 SSW 7 9 4 5 - - 0.0
20/05:00am 21.1 22.8 18.5 85 1.6 SSW 7 9 4 5 - - 0.0
20/04:30am 21.6 23.9 18.6 83 1.9 S 4 7 2 4 - - 0.0
20/04:00am 22.1 24.6 19.1 83 1.9 S 4 7 2 4 - - 0.0
20/03:30am 22.5 24.3 19.5 83 1.9 S 9 13 5 7 - - 0.0
20/03:00am 22.7 24.3 19.9 84 1.8 S 11 15 6 8 - - 0.0
20/02:30am 22.1 23.8 19.3 84 1.8 S 9 11 5 6 - - 0.0
20/02:00am 22.6 24.8 19.2 81 2.2 SSE 6 9 3 5 - - 0.0
20/01:30am 23.2 25.3 19.4 79 2.4 SE 7 9 4 5 - - 0.0
20/01:00am 23.5 25.8 19.8 80 2.4 SE 7 11 4 6 - - 0.0
20/12:30am 23.3 25.8 20.2 83 2.0 SE 7 9 4 5 - - 0.0
20/12:00am 23.5 27.3 20.2 82 2.1 CALM 0 6 0 3 - - 0.0
 
Date/Time
EST
Temp
°C
App
Temp
°C
Dew
Point
Rel
Hum
%
Delta-T
°C
Wind Press
QNH
hPa
Press
MSL
hPa
Rain
since 9 am
mm
Dir
 
Spd
km/h
Gust
km/h
Spd
kts
Gust
kts
19/11:30pm 23.4 26.0 20.0 81 2.2 SSW 6 7 3 4 - - 0.0
19/11:00pm 23.9 26.9 20.0 79 2.5 SSE 4 9 2 5 - - 0.0
19/10:30pm 24.8 27.5 20.3 76 2.9 ESE 6 9 3 5 - - 0.0
19/10:00pm 24.7 27.0 20.6 78 2.7 E 9 13 5 7 - - 0.0
19/09:30pm 24.4 27.1 20.7 80 2.4 ENE 7 9 4 5 - - 0.0
19/09:00pm 24.4 27.3 20.7 80 2.4 ENE 6 9 3 5 - - 0.0
19/08:30pm 24.3 28.1 20.2 78 2.7 CALM 0 4 0 2 - - 0.0
19/08:00pm 24.5 28.4 20.4 78 2.7 CALM 0 0 0 0 - - 0.0
19/07:30pm 24.7 27.9 20.4 77 2.8 NE 4 6 2 3 - - 0.0
19/07:00pm 25.3 27.9 20.5 75 3.1 ENE 7 9 4 5 - - 0.0
19/06:30pm 25.7 27.9 20.3 72 3.5 ENE 9 13 5 7 - - 0.0
19/06:00pm 26.7 28.9 20.3 68 4.2 ENE 9 15 5 8 - - 0.0
19/05:30pm 27.7 28.6 20.0 63 5.0 ENE 15 20 8 11 - - 0.0
19/05:00pm 28.4 28.6 19.3 57 5.9 ENE 17 24 9 13 - - 0.0
19/04:30pm 29.2 29.2 18.9 53 6.7 E 17 24 9 13 - - 0.0
19/04:00pm 29.9 30.3 19.9 55 6.6 NE 17 26 9 14 - - 0.0
19/03:30pm 30.5 31.0 20.1 53 6.9 NE 17 26 9 14 - - 0.0
19/03:00pm 30.7 31.3 20.3 53 6.9 ENE 17 28 9 15 - - 0.0
19/02:30pm 30.1 30.0 19.5 53 6.9 ENE 19 26 10 14 - - 0.0
19/02:00pm 30.5 30.3 19.8 52 7.0 NE 20 28 11 15 - - 0.0
19/01:30pm 31.0 31.0 19.0 48 7.8 ENE 17 24 9 13 - - 0.0
19/01:00pm 30.4 31.0 19.4 51 7.2 E 15 22 8 12 - - 0.0
19/12:30pm 30.6 31.4 19.9 52 7.0 ENE 15 22 8 12 - - 0.0
19/12:00pm 30.0 30.2 19.4 53 6.9 ENE 17 26 9 14 - - 0.0
19/11:30am 29.2 28.8 18.9 53 6.7 ENE 19 26 10 14 - - 0.0
19/11:00am 29.9 30.3 19.9 55 6.6 ENE 17 28 9 15 - - 0.0
19/10:30am 29.1 29.7 20.3 59 5.8 E 17 26 9 14 - - 0.0
19/10:00am 28.7 29.0 20.4 60 5.5 E 19 26 10 14 - - 0.0
19/09:30am 27.8 29.1 20.1 63 5.0 ESE 13 28 7 15 - - 0.0
19/09:00am 27.6 29.7 20.9 67 4.4 SSE 11 17 6 9 - - 0.0
19/08:30am 25.7 27.7 20.7 74 3.3 SSE 11 17 6 9 - - 0.0
19/08:00am 24.5 26.8 20.6 79 2.5 SSE 9 17 5 9 - - 0.0
19/07:30am 23.1 25.6 20.2 84 1.9 SSE 7 9 4 5 - - 0.0
19/07:00am 21.3 23.6 19.4 89 1.2 SSW 6 7 3 4 - - 0.0
19/06:30am 20.8 23.9 18.6 87 1.4 CALM 0 0 0 0 - - 0.0
19/06:00am 21.0 24.2 18.9 88 1.3 CALM 0 0 0 0 - - 0.0
19/05:30am 21.1 24.4 19.0 88 1.3 CALM 0 6 0 3 - - 0.0
19/05:00am 21.2 23.6 18.9 87 1.4 S 4 7 2 4 - - 0.0
19/04:30am 21.4 23.6 19.1 87 1.5 SSE 6 7 3 4 - - 0.0
19/04:00am 21.5 23.7 19.1 86 1.5 SSE 6 7 3 4 - - 0.0
19/03:30am 21.6 23.8 19.3 87 1.5 SE 6 9 3 5 - - 0.0
19/03:00am 21.2 23.9 18.6 85 1.6 SSE 2 6 1 3 - - 0.0
19/02:30am 21.2 24.2 18.4 84 1.7 CALM 0 0 0 0 - - 0.0
19/02:00am 21.5 24.2 18.7 84 1.8 S 2 7 1 4 - - 0.0
19/01:30am 21.5 24.5 18.5 83 1.9 CALM 0 0 0 0 - - 0.0
19/01:00am 21.7 23.7 18.7 83 1.9 S 6 7 3 4 - - 0.0
19/12:30am 22.4 24.4 18.8 80 2.3 S 6 7 3 4 - - 0.0
19/12:00am 22.9 26.4 19.5 81 2.2 CALM 0 0 0 0 - - 0.0
 
Date/Time
EST
Temp
°C
App
Temp
°C
Dew
Point
Rel
Hum
%
Delta-T
°C
Wind Press
QNH
hPa
Press
MSL
hPa
Rain
since 9 am
mm
Dir
 
Spd
km/h
Gust
km/h
Spd
kts
Gust
kts
18/11:30pm 23.6 27.2 19.7 79 2.5 CALM 0 0 0 0 - - 0.0
18/11:00pm 24.9 27.6 20.6 77 2.8 ESE 7 13 4 7 - - 0.0
18/10:30pm 24.7 27.0 20.6 78 2.7 E 9 13 5 7 - - 0.0
18/10:00pm 24.6 27.2 20.5 78 2.7 E 7 11 4 6 - - 0.0
18/09:30pm 24.1 26.1 20.0 78 2.7 E 9 13 5 7 - - 0.0
18/09:00pm 24.2 26.0 19.5 75 3.0 E 9 13 5 7 - - 0.0
18/08:30pm 24.0 26.0 19.1 74 3.1 ENE 7 11 4 6 - - 0.0
18/08:00pm 24.2 26.2 18.8 72 3.4 ENE 6 9 3 5 - - 0.0
18/07:30pm 24.6 26.4 18.8 70 3.7 ENE 7 11 4 6 - - 0.0
18/07:00pm 24.8 26.5 18.5 68 4.0 ENE 7 11 4 6 - - 0.0
18/06:30pm 25.5 26.4 18.4 65 4.5 ENE 11 17 6 9 - - 0.0
18/06:00pm 26.3 26.6 18.7 63 4.9 E 15 24 8 13 - - 0.0
18/05:30pm 27.0 26.9 18.8 60 5.3 E 17 24 9 13 - - 0.0
18/05:00pm 27.8 27.4 18.8 58 5.8 E 19 33 10 18 - - 0.0
18/04:30pm 28.2 27.3 19.1 57 5.9 E 22 33 12 18 - - 0.0

Other Formats:

Comma delimited format used in spreadsheet applications
http://www.bom.gov.au/fwo/IDQ60801/IDQ60801.95295.axf

JavaScript Object Notation format (JSON) in row-major order
http://www.bom.gov.au/fwo/IDQ60801/IDQ60801.95295.json